sensor_id;sensor_type;location;lat;lon;timestamp;temperature;humidity
26186;DHT22;20067;48.764;9.176;2023-03-23T00:02:27;15.40;67.70
26186;DHT22;20067;48.764;9.176;2023-03-23T00:04:53;15.40;68.60
26186;DHT22;20067;48.764;9.176;2023-03-23T00:07:20;15.40;67.50
26186;DHT22;20067;48.764;9.176;2023-03-23T00:09:53;15.40;67.70
26186;DHT22;20067;48.764;9.176;2023-03-23T00:12:26;15.40;68.90
26186;DHT22;20067;48.764;9.176;2023-03-23T00:14:58;15.40;68.50
26186;DHT22;20067;48.764;9.176;2023-03-23T00:17:26;15.50;67.70
26186;DHT22;20067;48.764;9.176;2023-03-23T00:19:51;15.40;67.60
26186;DHT22;20067;48.764;9.176;2023-03-23T00:22:17;15.40;67.70
26186;DHT22;20067;48.764;9.176;2023-03-23T00:24:46;15.30;67.80
26186;DHT22;20067;48.764;9.176;2023-03-23T00:27:12;15.20;68.10
26186;DHT22;20067;48.764;9.176;2023-03-23T00:29:40;15.20;68.20
26186;DHT22;20067;48.764;9.176;2023-03-23T00:32:07;15.10;68.40
26186;DHT22;20067;48.764;9.176;2023-03-23T00:34:38;15.10;68.60
26186;DHT22;20067;48.764;9.176;2023-03-23T00:37:05;15.00;68.70
26186;DHT22;20067;48.764;9.176;2023-03-23T00:39:31;15.00;68.70
26186;DHT22;20067;48.764;9.176;2023-03-23T00:41:56;15.00;68.70
26186;DHT22;20067;48.764;9.176;2023-03-23T00:44:34;15.00;68.50
26186;DHT22;20067;48.764;9.176;2023-03-23T00:47:00;15.00;68.60
26186;DHT22;20067;48.764;9.176;2023-03-23T00:49:26;15.10;68.50
26186;DHT22;20067;48.764;9.176;2023-03-23T00:51:52;15.10;68.20
26186;DHT22;20067;48.764;9.176;2023-03-23T00:54:17;15.10;68.30
26186;DHT22;20067;48.764;9.176;2023-03-23T00:56:43;15.10;68.40
26186;DHT22;20067;48.764;9.176;2023-03-23T00:59:08;15.10;68.30
26186;DHT22;20067;48.764;9.176;2023-03-23T01:01:34;15.00;68.60
26186;DHT22;20067;48.764;9.176;2023-03-23T01:04:00;15.00;68.70
26186;DHT22;20067;48.764;9.176;2023-03-23T01:06:33;15.10;68.60
26186;DHT22;20067;48.764;9.176;2023-03-23T01:09:01;15.20;68.10
26186;DHT22;20067;48.764;9.176;2023-03-23T01:11:28;15.10;68.10
26186;DHT22;20067;48.764;9.176;2023-03-23T01:13:54;15.00;68.30
26186;DHT22;20067;48.764;9.176;2023-03-23T01:16:19;15.00;68.50
26186;DHT22;20067;48.764;9.176;2023-03-23T01:18:45;15.00;68.50
26186;DHT22;20067;48.764;9.176;2023-03-23T01:21:11;15.00;68.20
26186;DHT22;20067;48.764;9.176;2023-03-23T01:23:38;15.00;68.10
26186;DHT22;20067;48.764;9.176;2023-03-23T01:26:07;15.00;68.20
26186;DHT22;20067;48.764;9.176;2023-03-23T01:28:35;15.00;68.30
26186;DHT22;20067;48.764;9.176;2023-03-23T01:31:05;15.00;68.20
26186;DHT22;20067;48.764;9.176;2023-03-23T01:33:31;15.00;68.10
26186;DHT22;20067;48.764;9.176;2023-03-23T01:35:57;15.00;67.90
26186;DHT22;20067;48.764;9.176;2023-03-23T01:38:23;15.00;68.20
26186;DHT22;20067;48.764;9.176;2023-03-23T01:40:48;15.00;68.30
26186;DHT22;20067;48.764;9.176;2023-03-23T01:43:14;15.00;68.10
26186;DHT22;20067;48.764;9.176;2023-03-23T01:45:40;15.00;68.40
26186;DHT22;20067;48.764;9.176;2023-03-23T01:48:25;15.10;68.20
26186;DHT22;20067;48.764;9.176;2023-03-23T01:50:59;15.20;67.90
26186;DHT22;20067;48.764;9.176;2023-03-23T01:53:28;15.20;67.90
26186;DHT22;20067;48.764;9.176;2023-03-23T01:55:55;15.20;68.40
26186;DHT22;20067;48.764;9.176;2023-03-23T01:58:25;15.10;69.10
26186;DHT22;20067;48.764;9.176;2023-03-23T02:00:53;15.10;69.00
26186;DHT22;20067;48.764;9.176;2023-03-23T02:03:20;15.10;69.00
26186;DHT22;20067;48.764;9.176;2023-03-23T02:05:48;15.00;69.30
26186;DHT22;20067;48.764;9.176;2023-03-23T02:08:14;15.10;69.20
26186;DHT22;20067;48.764;9.176;2023-03-23T02:10:40;15.10;69.10
26186;DHT22;20067;48.764;9.176;2023-03-23T02:13:06;15.10;69.00
26186;DHT22;20067;48.764;9.176;2023-03-23T02:15:36;15.10;68.90
26186;DHT22;20067;48.764;9.176;2023-03-23T02:20:57;15.00;69.20
26186;DHT22;20067;48.764;9.176;2023-03-23T02:33:35;15.00;69.30
26186;DHT22;20067;48.764;9.176;2023-03-23T02:41:17;15.00;69.80
26186;DHT22;20067;48.764;9.176;2023-03-23T02:43:44;15.00;69.70
26186;DHT22;20067;48.764;9.176;2023-03-23T02:46:10;14.90;69.90
26186;DHT22;20067;48.764;9.176;2023-03-23T02:48:36;15.00;69.90
26186;DHT22;20067;48.764;9.176;2023-03-23T02:51:03;14.90;69.90
26186;DHT22;20067;48.764;9.176;2023-03-23T02:53:29;14.90;70.10
26186;DHT22;20067;48.764;9.176;2023-03-23T02:55:55;14.90;70.10
26186;DHT22;20067;48.764;9.176;2023-03-23T02:58:22;14.90;70.10
26186;DHT22;20067;48.764;9.176;2023-03-23T03:00:50;14.90;70.20
26186;DHT22;20067;48.764;9.176;2023-03-23T03:03:17;14.90;70.20
26186;DHT22;20067;48.764;9.176;2023-03-23T03:05:46;15.00;70.20
26186;DHT22;20067;48.764;9.176;2023-03-23T03:10:50;15.10;69.60
26186;DHT22;20067;48.764;9.176;2023-03-23T03:13:20;15.10;69.90
26186;DHT22;20067;48.764;9.176;2023-03-23T03:15:59;15.00;70.10
26186;DHT22;20067;48.764;9.176;2023-03-23T03:18:34;15.10;70.20
26186;DHT22;20067;48.764;9.176;2023-03-23T03:21:04;15.00;70.50
26186;DHT22;20067;48.764;9.176;2023-03-23T03:23:32;15.10;70.60
26186;DHT22;20067;48.764;9.176;2023-03-23T03:25:58;15.10;70.60
26186;DHT22;20067;48.764;9.176;2023-03-23T03:28:24;15.10;70.40
26186;DHT22;20067;48.764;9.176;2023-03-23T03:30:53;15.00;70.70
26186;DHT22;20067;48.764;9.176;2023-03-23T03:33:19;14.90;71.00
26186;DHT22;20067;48.764;9.176;2023-03-23T03:35:45;14.90;71.10
26186;DHT22;20067;48.764;9.176;2023-03-23T03:38:12;14.90;71.00
26186;DHT22;20067;48.764;9.176;2023-03-23T03:40:37;15.00;70.90
26186;DHT22;20067;48.764;9.176;2023-03-23T03:43:03;15.00;70.80
26186;DHT22;20067;48.764;9.176;2023-03-23T03:45:29;15.00;70.90
26186;DHT22;20067;48.764;9.176;2023-03-23T03:47:55;15.00;71.00
26186;DHT22;20067;48.764;9.176;2023-03-23T03:50:20;15.00;71.00
26186;DHT22;20067;48.764;9.176;2023-03-23T03:52:46;15.00;71.00
26186;DHT22;20067;48.764;9.176;2023-03-23T03:55:12;15.00;70.90
26186;DHT22;20067;48.764;9.176;2023-03-23T03:57:38;15.00;70.70
26186;DHT22;20067;48.764;9.176;2023-03-23T04:00:04;15.00;70.90
26186;DHT22;20067;48.764;9.176;2023-03-23T04:02:42;14.90;70.80
26186;DHT22;20067;48.764;9.176;2023-03-23T04:05:08;14.90;70.90
26186;DHT22;20067;48.764;9.176;2023-03-23T04:07:35;14.90;71.10
26186;DHT22;20067;48.764;9.176;2023-03-23T04:10:04;14.90;71.10
26186;DHT22;20067;48.764;9.176;2023-03-23T04:12:30;15.00;71.00
26186;DHT22;20067;48.764;9.176;2023-03-23T04:14:57;15.00;70.80
26186;DHT22;20067;48.764;9.176;2023-03-23T04:17:22;15.00;70.80
26186;DHT22;20067;48.764;9.176;2023-03-23T04:19:51;15.00;71.00
26186;DHT22;20067;48.764;9.176;2023-03-23T04:22:17;15.00;71.20
26186;DHT22;20067;48.764;9.176;2023-03-23T04:24:42;15.00;71.20
26186;DHT22;20067;48.764;9.176;2023-03-23T04:27:08;15.00;71.10
26186;DHT22;20067;48.764;9.176;2023-03-23T04:29:34;15.00;71.10
26186;DHT22;20067;48.764;9.176;2023-03-23T04:31:59;15.00;71.20
26186;DHT22;20067;48.764;9.176;2023-03-23T04:34:27;15.00;71.00
26186;DHT22;20067;48.764;9.176;2023-03-23T04:36:52;15.10;71.00
26186;DHT22;20067;48.764;9.176;2023-03-23T04:39:18;15.10;70.70
26186;DHT22;20067;48.764;9.176;2023-03-23T04:41:44;15.10;70.70
26186;DHT22;20067;48.764;9.176;2023-03-23T04:44:11;15.10;70.70
26186;DHT22;20067;48.764;9.176;2023-03-23T04:46:42;15.00;70.80
26186;DHT22;20067;48.764;9.176;2023-03-23T04:49:10;15.00;70.80
26186;DHT22;20067;48.764;9.176;2023-03-23T04:51:36;15.00;70.70
26186;DHT22;20067;48.764;9.176;2023-03-23T04:54:01;15.10;70.80
26186;DHT22;20067;48.764;9.176;2023-03-23T04:56:27;15.10;70.60
26186;DHT22;20067;48.764;9.176;2023-03-23T04:58:52;15.10;70.40
26186;DHT22;20067;48.764;9.176;2023-03-23T05:01:18;15.20;70.50
26186;DHT22;20067;48.764;9.176;2023-03-23T05:03:44;15.20;70.40
26186;DHT22;20067;48.764;9.176;2023-03-23T05:06:09;15.20;70.40
26186;DHT22;20067;48.764;9.176;2023-03-23T05:08:35;15.30;70.40
26186;DHT22;20067;48.764;9.176;2023-03-23T05:11:04;15.30;70.10
26186;DHT22;20067;48.764;9.176;2023-03-23T05:13:29;15.30;70.10
26186;DHT22;20067;48.764;9.176;2023-03-23T05:15:55;15.30;70.10
26186;DHT22;20067;48.764;9.176;2023-03-23T05:18:21;15.30;70.40
26186;DHT22;20067;48.764;9.176;2023-03-23T05:20:46;15.20;70.50
26186;DHT22;20067;48.764;9.176;2023-03-23T05:23:12;15.20;70.60
26186;DHT22;20067;48.764;9.176;2023-03-23T05:25:38;15.20;70.60
26186;DHT22;20067;48.764;9.176;2023-03-23T05:28:06;15.20;70.50
26186;DHT22;20067;48.764;9.176;2023-03-23T05:30:31;15.30;70.40
26186;DHT22;20067;48.764;9.176;2023-03-23T05:32:57;15.30;70.20
26186;DHT22;20067;48.764;9.176;2023-03-23T05:35:22;15.30;70.20
26186;DHT22;20067;48.764;9.176;2023-03-23T05:37:48;15.30;70.20
26186;DHT22;20067;48.764;9.176;2023-03-23T05:40:14;15.40;69.90
26186;DHT22;20067;48.764;9.176;2023-03-23T05:42:40;15.40;70.00
26186;DHT22;20067;48.764;9.176;2023-03-23T05:45:07;15.40;70.20
26186;DHT22;20067;48.764;9.176;2023-03-23T05:47:34;15.30;70.30
26186;DHT22;20067;48.764;9.176;2023-03-23T05:49:59;15.30;70.40
26186;DHT22;20067;48.764;9.176;2023-03-23T05:52:25;15.30;70.40
26186;DHT22;20067;48.764;9.176;2023-03-23T05:54:51;15.30;70.30
26186;DHT22;20067;48.764;9.176;2023-03-23T05:57:17;15.30;70.30
26186;DHT22;20067;48.764;9.176;2023-03-23T05:59:43;15.40;70.10
26186;DHT22;20067;48.764;9.176;2023-03-23T06:02:09;15.40;70.30
26186;DHT22;20067;48.764;9.176;2023-03-23T06:04:35;15.40;70.40
26186;DHT22;20067;48.764;9.176;2023-03-23T06:07:03;15.40;70.10
26186;DHT22;20067;48.764;9.176;2023-03-23T06:09:28;15.50;69.90
26186;DHT22;20067;48.764;9.176;2023-03-23T06:11:54;15.50;70.00
26186;DHT22;20067;48.764;9.176;2023-03-23T06:14:20;15.50;70.10
26186;DHT22;20067;48.764;9.176;2023-03-23T06:16:46;15.60;70.00
26186;DHT22;20067;48.764;9.176;2023-03-23T06:19:12;15.60;69.80
26186;DHT22;20067;48.764;9.176;2023-03-23T06:21:38;15.70;69.70
26186;DHT22;20067;48.764;9.176;2023-03-23T06:24:03;15.70;69.70
26186;DHT22;20067;48.764;9.176;2023-03-23T06:26:30;15.70;69.70
26186;DHT22;20067;48.764;9.176;2023-03-23T06:28:57;15.70;69.70
26186;DHT22;20067;48.764;9.176;2023-03-23T06:31:23;15.70;69.70
26186;DHT22;20067;48.764;9.176;2023-03-23T06:33:49;15.60;69.90
26186;DHT22;20067;48.764;9.176;2023-03-23T06:36:14;15.60;69.90
26186;DHT22;20067;48.764;9.176;2023-03-23T06:38:40;15.60;70.00
26186;DHT22;20067;48.764;9.176;2023-03-23T06:41:05;15.60;70.10
26186;DHT22;20067;48.764;9.176;2023-03-23T06:43:31;15.60;70.00
26186;DHT22;20067;48.764;9.176;2023-03-23T06:45:59;15.60;70.10
26186;DHT22;20067;48.764;9.176;2023-03-23T06:48:25;15.50;70.30
26186;DHT22;20067;48.764;9.176;2023-03-23T06:50:52;15.50;70.40
26186;DHT22;20067;48.764;9.176;2023-03-23T06:53:17;15.50;70.30
26186;DHT22;20067;48.764;9.176;2023-03-23T06:55:45;15.50;70.20
26186;DHT22;20067;48.764;9.176;2023-03-23T06:58:11;15.60;70.20
26186;DHT22;20067;48.764;9.176;2023-03-23T07:00:36;15.70;70.30
26186;DHT22;20067;48.764;9.176;2023-03-23T07:03:02;15.70;70.00
26186;DHT22;20067;48.764;9.176;2023-03-23T07:05:28;15.80;69.80
26186;DHT22;20067;48.764;9.176;2023-03-23T07:07:53;15.90;69.80
26186;DHT22;20067;48.764;9.176;2023-03-23T07:10:19;15.90;69.50
26186;DHT22;20067;48.764;9.176;2023-03-23T07:12:45;15.90;69.80
26186;DHT22;20067;48.764;9.176;2023-03-23T07:15:11;15.90;70.10
26186;DHT22;20067;48.764;9.176;2023-03-23T07:17:37;15.90;70.60
26186;DHT22;20067;48.764;9.176;2023-03-23T07:20:03;16.00;69.70
26186;DHT22;20067;48.764;9.176;2023-03-23T07:22:30;16.00;70.00
26186;DHT22;20067;48.764;9.176;2023-03-23T07:24:56;16.00;70.00
26186;DHT22;20067;48.764;9.176;2023-03-23T07:27:22;16.10;69.90
26186;DHT22;20067;48.764;9.176;2023-03-23T07:29:47;16.10;69.60
26186;DHT22;20067;48.764;9.176;2023-03-23T07:32:13;16.10;69.50
26186;DHT22;20067;48.764;9.176;2023-03-23T07:34:38;16.10;69.60
26186;DHT22;20067;48.764;9.176;2023-03-23T07:37:04;16.00;69.60
26186;DHT22;20067;48.764;9.176;2023-03-23T07:39:30;16.00;69.50
26186;DHT22;20067;48.764;9.176;2023-03-23T07:41:55;16.00;69.60
26186;DHT22;20067;48.764;9.176;2023-03-23T07:44:22;16.10;69.60
26186;DHT22;20067;48.764;9.176;2023-03-23T07:46:47;16.00;69.90
26186;DHT22;20067;48.764;9.176;2023-03-23T07:49:13;16.00;69.70
26186;DHT22;20067;48.764;9.176;2023-03-23T07:51:39;16.10;69.90
26186;DHT22;20067;48.764;9.176;2023-03-23T07:54:05;16.10;69.80
26186;DHT22;20067;48.764;9.176;2023-03-23T07:56:33;16.10;70.00
26186;DHT22;20067;48.764;9.176;2023-03-23T07:58:58;16.20;70.50
26186;DHT22;20067;48.764;9.176;2023-03-23T08:01:24;16.40;69.70
26186;DHT22;20067;48.764;9.176;2023-03-23T08:03:50;16.40;69.60
26186;DHT22;20067;48.764;9.176;2023-03-23T08:06:16;16.50;69.80
26186;DHT22;20067;48.764;9.176;2023-03-23T08:08:42;16.60;69.50
26186;DHT22;20067;48.764;9.176;2023-03-23T08:11:07;16.60;69.60
26186;DHT22;20067;48.764;9.176;2023-03-23T08:13:33;16.50;70.10
26186;DHT22;20067;48.764;9.176;2023-03-23T08:15:59;16.50;70.30
26186;DHT22;20067;48.764;9.176;2023-03-23T08:18:29;16.50;70.40
26186;DHT22;20067;48.764;9.176;2023-03-23T08:20:54;16.40;70.90
26186;DHT22;20067;48.764;9.176;2023-03-23T08:23:20;16.40;71.10
26186;DHT22;20067;48.764;9.176;2023-03-23T08:25:47;16.40;71.30
26186;DHT22;20067;48.764;9.176;2023-03-23T08:28:13;16.40;71.50
26186;DHT22;20067;48.764;9.176;2023-03-23T08:30:41;16.40;71.90
26186;DHT22;20067;48.764;9.176;2023-03-23T08:33:07;16.40;72.20
26186;DHT22;20067;48.764;9.176;2023-03-23T08:35:33;16.50;72.10
26186;DHT22;20067;48.764;9.176;2023-03-23T08:37:58;16.50;72.20
26186;DHT22;20067;48.764;9.176;2023-03-23T08:40:24;16.50;72.30
26186;DHT22;20067;48.764;9.176;2023-03-23T08:42:50;16.50;72.50
26186;DHT22;20067;48.764;9.176;2023-03-23T08:45:19;16.50;72.80
26186;DHT22;20067;48.764;9.176;2023-03-23T08:47:45;16.50;73.00
26186;DHT22;20067;48.764;9.176;2023-03-23T08:50:15;16.40;73.40
26186;DHT22;20067;48.764;9.176;2023-03-23T08:52:41;16.40;73.80
26186;DHT22;20067;48.764;9.176;2023-03-23T08:55:09;16.40;74.00
26186;DHT22;20067;48.764;9.176;2023-03-23T08:57:35;16.30;74.20
26186;DHT22;20067;48.764;9.176;2023-03-23T09:00:02;16.30;74.30
26186;DHT22;20067;48.764;9.176;2023-03-23T09:02:38;16.30;74.40
26186;DHT22;20067;48.764;9.176;2023-03-23T09:05:04;16.20;74.70
26186;DHT22;20067;48.764;9.176;2023-03-23T09:07:29;16.30;74.60
26186;DHT22;20067;48.764;9.176;2023-03-23T09:09:55;16.30;74.60
26186;DHT22;20067;48.764;9.176;2023-03-23T09:12:21;16.40;74.70
26186;DHT22;20067;48.764;9.176;2023-03-23T09:14:46;16.50;74.40
26186;DHT22;20067;48.764;9.176;2023-03-23T09:17:12;16.60;74.20
26186;DHT22;20067;48.764;9.176;2023-03-23T09:19:38;16.80;73.50
26186;DHT22;20067;48.764;9.176;2023-03-23T09:22:03;16.80;73.60
26186;DHT22;20067;48.764;9.176;2023-03-23T09:24:29;16.90;73.50
26186;DHT22;20067;48.764;9.176;2023-03-23T09:26:55;17.00;73.20
26186;DHT22;20067;48.764;9.176;2023-03-23T09:29:20;17.10;73.70
26186;DHT22;20067;48.764;9.176;2023-03-23T09:31:46;17.20;72.40
26186;DHT22;20067;48.764;9.176;2023-03-23T09:34:13;17.20;72.20
26186;DHT22;20067;48.764;9.176;2023-03-23T09:36:41;17.20;72.00
26186;DHT22;20067;48.764;9.176;2023-03-23T09:39:07;17.00;72.50
26186;DHT22;20067;48.764;9.176;2023-03-23T09:49:10;16.60;73.40
26186;DHT22;20067;48.764;9.176;2023-03-23T09:54:08;16.50;73.50
26186;DHT22;20067;48.764;9.176;2023-03-23T09:56:34;16.60;73.60
26186;DHT22;20067;48.764;9.176;2023-03-23T09:59:12;16.60;73.70
26186;DHT22;20067;48.764;9.176;2023-03-23T10:01:40;16.70;73.60
26186;DHT22;20067;48.764;9.176;2023-03-23T10:04:17;16.80;73.70
26186;DHT22;20067;48.764;9.176;2023-03-23T10:06:47;17.00;73.20
26186;DHT22;20067;48.764;9.176;2023-03-23T10:09:14;17.10;72.80
26186;DHT22;20067;48.764;9.176;2023-03-23T10:14:13;17.30;72.70
26186;DHT22;20067;48.764;9.176;2023-03-23T10:16:59;17.30;72.50
26186;DHT22;20067;48.764;9.176;2023-03-23T10:21:52;17.50;72.00
26186;DHT22;20067;48.764;9.176;2023-03-23T10:24:20;17.60;72.00
26186;DHT22;20067;48.764;9.176;2023-03-23T10:29:31;17.90;71.40
26186;DHT22;20067;48.764;9.176;2023-03-23T10:39:21;17.40;72.00
26186;DHT22;20067;48.764;9.176;2023-03-23T10:41:49;17.30;72.40
26186;DHT22;20067;48.764;9.176;2023-03-23T10:46:44;17.20;72.90
26186;DHT22;20067;48.764;9.176;2023-03-23T10:49:24;17.20;73.10
26186;DHT22;20067;48.764;9.176;2023-03-23T10:54:39;17.30;73.00
26186;DHT22;20067;48.764;9.176;2023-03-23T10:57:12;17.40;72.70
26186;DHT22;20067;48.764;9.176;2023-03-23T11:02:24;17.50;72.60
26186;DHT22;20067;48.764;9.176;2023-03-23T11:04:58;17.70;72.40
26186;DHT22;20067;48.764;9.176;2023-03-23T11:07:26;17.70;72.00
26186;DHT22;20067;48.764;9.176;2023-03-23T11:09:54;17.70;72.30
26186;DHT22;20067;48.764;9.176;2023-03-23T11:12:21;17.80;72.10
26186;DHT22;20067;48.764;9.176;2023-03-23T11:14:48;17.90;71.80
26186;DHT22;20067;48.764;9.176;2023-03-23T11:17:24;17.90;71.60
26186;DHT22;20067;48.764;9.176;2023-03-23T11:19:50;17.70;71.90
26186;DHT22;20067;48.764;9.176;2023-03-23T11:22:25;17.60;72.30
26186;DHT22;20067;48.764;9.176;2023-03-23T11:24:55;17.60;72.70
26186;DHT22;20067;48.764;9.176;2023-03-23T11:27:21;17.90;72.30
26186;DHT22;20067;48.764;9.176;2023-03-23T11:29:55;17.90;72.10
26186;DHT22;20067;48.764;9.176;2023-03-23T11:32:23;17.80;73.00
26186;DHT22;20067;48.764;9.176;2023-03-23T11:34:52;17.80;73.20
26186;DHT22;20067;48.764;9.176;2023-03-23T11:39:57;17.60;73.30
26186;DHT22;20067;48.764;9.176;2023-03-23T11:42:24;17.60;73.50
26186;DHT22;20067;48.764;9.176;2023-03-23T11:44:54;17.80;73.30
26186;DHT22;20067;48.764;9.176;2023-03-23T11:47:37;17.90;72.70
26186;DHT22;20067;48.764;9.176;2023-03-23T11:57:41;18.00;72.00
26186;DHT22;20067;48.764;9.176;2023-03-23T12:00:14;18.20;71.90
26186;DHT22;20067;48.764;9.176;2023-03-23T12:02:42;18.40;71.50
26186;DHT22;20067;48.764;9.176;2023-03-23T12:23:41;18.30;68.90
26186;DHT22;20067;48.764;9.176;2023-03-23T12:26:19;18.40;68.70
26186;DHT22;20067;48.764;9.176;2023-03-23T12:31:33;18.40;68.10
26186;DHT22;20067;48.764;9.176;2023-03-23T12:42:03;18.20;69.00
26186;DHT22;20067;48.764;9.176;2023-03-23T12:44:40;18.20;68.80
26186;DHT22;20067;48.764;9.176;2023-03-23T12:49:37;18.30;69.40
26186;DHT22;20067;48.764;9.176;2023-03-23T12:54:46;18.70;68.30
26186;DHT22;20067;48.764;9.176;2023-03-23T12:57:34;18.70;68.10
26186;DHT22;20067;48.764;9.176;2023-03-23T13:00:16;18.70;68.10
26186;DHT22;20067;48.764;9.176;2023-03-23T13:10:56;18.30;69.40
26186;DHT22;20067;48.764;9.176;2023-03-23T13:13:23;18.20;69.70
26186;DHT22;20067;48.764;9.176;2023-03-23T13:18:27;18.20;69.80
26186;DHT22;20067;48.764;9.176;2023-03-23T13:20:58;18.20;69.80
26186;DHT22;20067;48.764;9.176;2023-03-23T13:23:28;18.30;69.80
26186;DHT22;20067;48.764;9.176;2023-03-23T13:26:06;18.30;69.70
26186;DHT22;20067;48.764;9.176;2023-03-23T13:28:55;18.40;69.80
26186;DHT22;20067;48.764;9.176;2023-03-23T13:33:57;18.60;69.40
26186;DHT22;20067;48.764;9.176;2023-03-23T13:36:31;18.60;69.00
26186;DHT22;20067;48.764;9.176;2023-03-23T13:38:59;18.60;68.60
26186;DHT22;20067;48.764;9.176;2023-03-23T13:41:25;18.60;68.90
26186;DHT22;20067;48.764;9.176;2023-03-23T13:43:51;18.50;68.80
26186;DHT22;20067;48.764;9.176;2023-03-23T13:48:46;18.30;68.80
26186;DHT22;20067;48.764;9.176;2023-03-23T13:53:50;18.50;68.30
26186;DHT22;20067;48.764;9.176;2023-03-23T13:56:17;18.50;68.10
26186;DHT22;20067;48.764;9.176;2023-03-23T13:59:04;18.50;68.00
26186;DHT22;20067;48.764;9.176;2023-03-23T14:01:31;18.50;68.30
26186;DHT22;20067;48.764;9.176;2023-03-23T14:03:58;18.40;68.30
26186;DHT22;20067;48.764;9.176;2023-03-23T14:06:26;18.40;68.60
26186;DHT22;20067;48.764;9.176;2023-03-23T14:09:03;18.40;68.60
26186;DHT22;20067;48.764;9.176;2023-03-23T14:11:30;18.40;68.50
26186;DHT22;20067;48.764;9.176;2023-03-23T14:16:23;18.40;68.70
26186;DHT22;20067;48.764;9.176;2023-03-23T14:18:56;18.50;68.60
26186;DHT22;20067;48.764;9.176;2023-03-23T14:21:24;18.40;67.30
26186;DHT22;20067;48.764;9.176;2023-03-23T14:23:50;18.30;67.40
26186;DHT22;20067;48.764;9.176;2023-03-23T14:26:16;18.30;67.90
26186;DHT22;20067;48.764;9.176;2023-03-23T14:28:45;18.40;67.90
26186;DHT22;20067;48.764;9.176;2023-03-23T14:31:21;18.50;67.70
26186;DHT22;20067;48.764;9.176;2023-03-23T14:33:48;18.50;67.10
26186;DHT22;20067;48.764;9.176;2023-03-23T14:36:19;18.50;66.90
26186;DHT22;20067;48.764;9.176;2023-03-23T14:38:45;18.50;66.90
26186;DHT22;20067;48.764;9.176;2023-03-23T14:41:10;18.50;67.10
26186;DHT22;20067;48.764;9.176;2023-03-23T14:43:36;18.60;66.90
26186;DHT22;20067;48.764;9.176;2023-03-23T14:46:05;18.60;66.60
26186;DHT22;20067;48.764;9.176;2023-03-23T14:48:31;18.60;66.70
26186;DHT22;20067;48.764;9.176;2023-03-23T14:51:00;18.60;66.70
26186;DHT22;20067;48.764;9.176;2023-03-23T14:53:39;18.60;66.40
26186;DHT22;20067;48.764;9.176;2023-03-23T14:56:13;18.50;66.20
26186;DHT22;20067;48.764;9.176;2023-03-23T14:58:38;18.40;66.60
26186;DHT22;20067;48.764;9.176;2023-03-23T15:01:09;18.40;66.50
26186;DHT22;20067;48.764;9.176;2023-03-23T15:03:40;18.40;66.40
26186;DHT22;20067;48.764;9.176;2023-03-23T15:06:09;18.40;66.40
26186;DHT22;20067;48.764;9.176;2023-03-23T15:08:36;18.40;66.50
26186;DHT22;20067;48.764;9.176;2023-03-23T15:13:36;18.30;66.20
26186;DHT22;20067;48.764;9.176;2023-03-23T15:16:06;18.30;66.10
26186;DHT22;20067;48.764;9.176;2023-03-23T15:18:36;18.30;66.00
26186;DHT22;20067;48.764;9.176;2023-03-23T15:21:11;18.40;65.70
26186;DHT22;20067;48.764;9.176;2023-03-23T15:23:41;18.50;65.60
26186;DHT22;20067;48.764;9.176;2023-03-23T15:26:23;18.50;65.30
26186;DHT22;20067;48.764;9.176;2023-03-23T15:28:48;18.50;65.10
26186;DHT22;20067;48.764;9.176;2023-03-23T15:31:14;18.50;65.10
26186;DHT22;20067;48.764;9.176;2023-03-23T15:33:40;18.50;65.00
26186;DHT22;20067;48.764;9.176;2023-03-23T15:36:07;18.50;65.00
26186;DHT22;20067;48.764;9.176;2023-03-23T15:38:34;18.50;64.80
26186;DHT22;20067;48.764;9.176;2023-03-23T15:41:01;18.40;64.60
26186;DHT22;20067;48.764;9.176;2023-03-23T15:43:30;18.20;64.90
26186;DHT22;20067;48.764;9.176;2023-03-23T15:45:57;18.20;65.10
26186;DHT22;20067;48.764;9.176;2023-03-23T15:48:32;18.20;65.10
26186;DHT22;20067;48.764;9.176;2023-03-23T15:50:59;18.20;65.20
26186;DHT22;20067;48.764;9.176;2023-03-23T15:53:35;18.10;65.40
26186;DHT22;20067;48.764;9.176;2023-03-23T15:56:02;18.10;65.50
26186;DHT22;20067;48.764;9.176;2023-03-23T15:58:29;18.10;65.70
26186;DHT22;20067;48.764;9.176;2023-03-23T16:00:54;18.10;65.90
26186;DHT22;20067;48.764;9.176;2023-03-23T16:03:27;18.10;65.90
26186;DHT22;20067;48.764;9.176;2023-03-23T16:05:54;18.10;65.90
26186;DHT22;20067;48.764;9.176;2023-03-23T16:08:22;18.00;66.00
26186;DHT22;20067;48.764;9.176;2023-03-23T16:10:47;18.00;66.00
26186;DHT22;20067;48.764;9.176;2023-03-23T16:13:13;17.90;66.10
26186;DHT22;20067;48.764;9.176;2023-03-23T16:15:45;17.90;66.30
26186;DHT22;20067;48.764;9.176;2023-03-23T16:18:16;17.80;66.50
26186;DHT22;20067;48.764;9.176;2023-03-23T16:20:41;17.80;66.60
26186;DHT22;20067;48.764;9.176;2023-03-23T16:23:07;17.80;66.60
26186;DHT22;20067;48.764;9.176;2023-03-23T16:25:33;17.80;66.60
26186;DHT22;20067;48.764;9.176;2023-03-23T16:27:58;17.80;66.50
26186;DHT22;20067;48.764;9.176;2023-03-23T16:30:27;17.80;66.50
26186;DHT22;20067;48.764;9.176;2023-03-23T16:32:52;17.70;67.30
26186;DHT22;20067;48.764;9.176;2023-03-23T16:35:18;17.70;67.10
26186;DHT22;20067;48.764;9.176;2023-03-23T16:37:45;17.70;66.90
26186;DHT22;20067;48.764;9.176;2023-03-23T16:40:11;17.60;67.10
26186;DHT22;20067;48.764;9.176;2023-03-23T16:42:38;17.50;67.30
26186;DHT22;20067;48.764;9.176;2023-03-23T16:45:03;17.60;67.40
26186;DHT22;20067;48.764;9.176;2023-03-23T16:47:30;17.60;67.50
26186;DHT22;20067;48.764;9.176;2023-03-23T16:49:55;17.60;67.50
26186;DHT22;20067;48.764;9.176;2023-03-23T16:52:21;17.60;67.50
26186;DHT22;20067;48.764;9.176;2023-03-23T16:54:46;17.50;67.90
26186;DHT22;20067;48.764;9.176;2023-03-23T16:57:12;17.50;68.00
26186;DHT22;20067;48.764;9.176;2023-03-23T16:59:38;17.50;68.00
26186;DHT22;20067;48.764;9.176;2023-03-23T17:02:03;17.50;68.10
26186;DHT22;20067;48.764;9.176;2023-03-23T17:04:29;17.50;68.30
26186;DHT22;20067;48.764;9.176;2023-03-23T17:06:55;17.50;68.20
26186;DHT22;20067;48.764;9.176;2023-03-23T17:09:26;17.50;68.30
26186;DHT22;20067;48.764;9.176;2023-03-23T17:11:52;17.40;68.50
26186;DHT22;20067;48.764;9.176;2023-03-23T17:14:18;17.30;68.80
26186;DHT22;20067;48.764;9.176;2023-03-23T17:16:44;17.30;68.90
26186;DHT22;20067;48.764;9.176;2023-03-23T17:19:09;17.30;69.00
26186;DHT22;20067;48.764;9.176;2023-03-23T17:21:35;17.30;69.10
26186;DHT22;20067;48.764;9.176;2023-03-23T17:24:01;17.20;69.40
26186;DHT22;20067;48.764;9.176;2023-03-23T17:26:27;17.20;69.70
26186;DHT22;20067;48.764;9.176;2023-03-23T17:28:52;17.20;69.90
26186;DHT22;20067;48.764;9.176;2023-03-23T17:31:18;17.20;69.90
26186;DHT22;20067;48.764;9.176;2023-03-23T17:33:46;17.10;69.90
26186;DHT22;20067;48.764;9.176;2023-03-23T17:36:12;17.10;70.10